Gerrards Cross, United Kingdom
Current Conditions -  °F | °C
As of 5:50 PM on Thursday 30 Oct 2014 (Local Time) from EGWU Reporting Station
Haze Haze  
Wind Chill: 61°   Ceiling: 7500
Heat Index: 61°   Visibility: 5mi
Dew Point: 57°   Wind: 3mph
Humidity: 88%   Direction: 160°SSE
Pressure: 30.06"   Gusts: NA
Location:  51.59°N, 0.56°W
Report Text: EGWU 301750Z 16003KT 8000 HZ FEW015 BKN075 16/14 Q1018 NOSIG
Loading
Personal Weather Stations






























Interactive Weather Map
Tropical Storm Tracking
New forecast layout! Learn more

10-Day Weather Forecast

Advertisements
Track Severe Weather on mobile